【セントレア店】再稼働!!大変お待たせしました!

LUXURY FLIGHT

080-7560-1817

羽田空港本店:東京都大田区羽田空港3-3-2
第1旅客ターミナル5階
営業時間:10:00~20:00 定休日:年中無休
電話番号:080-7560-1817

セントレア店:愛知県常滑市セントレア1-1
FLIGHT OF DREAMS FLIGHT PARK
営業時間:10:00~20:00 定休日:年中無休
電話番号:080-4945-5666

lv

【セントレア店】再稼働!!大変お待たせしました!

STAFF BLOG

2020/06/12 【セントレア店】再稼働!!大変お待たせしました!

皆さま、大変ご無沙汰しております!

 

羽田空港本店の6/1再稼働に続きまして、

おかげさまで、セントレア店も本日6/12、再稼働させて頂きました

 

再稼働初日の中部のお天気は、

RJGG 120700Z 17007KT 9999 VCSH FEW015 BKN060 26/23 Q1004 NOSIG

梅雨っぽーーーい、曇りと雨ですね

 

しかーーーーし!!

セントレア店やフライトパークにお越しいただいた皆さまの活気や喜びが帰ってきて、

787初号機「ZA001」も、いつもより輝いて嬉しそうに見えました

 

再稼働初日は、平日にも関わらず、10:00の開店から20:00の閉店まで、

たくさんのお客様がフライトを楽しんでくださいました!

中には、再稼働を知って急遽、駆けつけてくださったお客様も!

お客さま全員の笑顔や感動のお写真を添えられず、大変申し訳ございませんが、

皆さまに、心からの感謝を申し上げます。

 

本当にありがとうございますっ!!!

 

しばらくは、コロナの影響が続くことが予測されておりますが、

操縦体験を、皆様に心からお楽しみ頂き、日常の活力としていただけるよう、

今後もスタッフ一同、努力を重ね、邁進して参ります。

 

ブログをお読みくださいまして、いつも本当にありがとうございます!

「感謝」

TOP